This is the latest recevied weather packets stored in our database for station/object K0GDI. If no packets are shown the sender has not sent any weather packets the latest 10 day(s).
| Time | Temp. | Humidity | Pressure | Rain* | Wind** | Luminosity | Snow |
|---|---|---|---|---|---|---|---|
| 1788116518 | 33.33° C | 39% | 1017 hPa | 0 mm | 1.34 m/s, 151° | - | - |
| 1788115905 | 33.33° C | 37% | 1017 hPa | 0 mm | 1.34 m/s, 146° | - | - |
| 1788115290 | 33.33° C | 37% | 1017 hPa | 0 mm | 1.34 m/s, 137° | - | - |
| 1788114676 | 33.89° C | 37% | 1017 hPa | 0 mm | 0.45 m/s, 215° | - | - |
| 1788114062 | 32.78° C | 40% | 1017 hPa | 0 mm | 1.34 m/s, 140° | - | - |
| 1788113448 | 32.22° C | 40% | 1017 hPa | 0 mm | 1.34 m/s, 140° | - | - |
| 1788112833 | 32.22° C | 40% | 1017 hPa | 0 mm | 1.79 m/s, 146° | - | - |
| 1788111605 | 32.22° C | 41% | 1017 hPa | 0 mm | 1.34 m/s, 152° | - | - |
| 1788110991 | 31.67° C | 40% | 1017 hPa | 0 mm | 2.24 m/s, 144° | - | - |
| 1788110377 | 31.67° C | 40% | 1017 hPa | 0 mm | 2.24 m/s, 142° | - | - |
| 1788109763 | 31.67° C | 40% | 1017 hPa | 0 mm | 1.79 m/s, 145° | - | - |
| 1788109149 | 31.11° C | 40% | 1017 hPa | 0 mm | 1.79 m/s, 146° | - | - |
| 1788108535 | 31.11° C | 40% | 1017 hPa | 0 mm | 1.79 m/s, 147° | - | - |
| 1788107921 | 31.11° C | 40% | 1017 hPa | 0 mm | 1.79 m/s, 147° | - | - |
| 1788107306 | 31.11° C | 38% | 1017 hPa | 0 mm | 1.34 m/s, 159° | - | - |
| 1788106692 | 31.11° C | 40% | 1017 hPa | 0 mm | 1.34 m/s, 187° | - | - |
| 1788106078 | 31.11° C | 40% | 1017 hPa | 0 mm | 1.34 m/s, 163° | - | - |
| 1788105464 | 31.11° C | 41% | 1017 hPa | 0 mm | 0.89 m/s, 187° | - | - |
| 1788104850 | 30.56° C | 43% | 1017 hPa | 0 mm | 1.34 m/s, 162° | - | - |
| 1788103643 | 30° C | 44% | 1017 hPa | 0 mm | 0.89 m/s, 168° | - | - |
| 1788101235 | 27.78° C | 54% | 1017 hPa | 0 mm | 0.89 m/s, 144° | - | - |
| 1788100621 | 27.22° C | 57% | 1017 hPa | 0 mm | 1.34 m/s, 153° | - | - |
| 1788099504 | 26.11° C | 62% | 1017 hPa | 0 mm | 1.79 m/s, 146° | - | - |
| 1788079957 | 18.33° C | 91% | 1017.2 hPa | 0 mm | 0.45 m/s, 146° | - | - |
| 1788079356 | 17.78° C | 93% | 1017.2 hPa | 0 mm | 0.45 m/s, 152° | - | - |
* Rain latest hour (hover to see other rain measurements)
** Current wind speed in m/s (hover to see current wind gust speed)